createdAt,value
2023-03-06T00:01:55.716Z,21.40
2023-03-06T00:04:29.214Z,19.80
2023-03-06T00:07:02.164Z,18.50
2023-03-06T00:09:35.143Z,17.30
2023-03-06T00:12:09.488Z,15.80
2023-03-06T00:14:46.044Z,18.10
2023-03-06T00:17:19.844Z,19.70
2023-03-06T00:20:00.251Z,19.70
2023-03-06T00:22:36.445Z,19.80
2023-03-06T00:25:16.252Z,21.70
2023-03-06T00:27:50.949Z,14.90
2023-03-06T00:30:27.380Z,20.20
2023-03-06T00:33:01.908Z,17.50
2023-03-06T00:35:36.476Z,17.40
2023-03-06T00:38:11.575Z,15.60
2023-03-06T00:40:44.774Z,17.80
2023-03-06T00:43:18.377Z,14.40
2023-03-06T00:45:50.979Z,23.70
2023-03-06T00:48:23.612Z,17.10
2023-03-06T00:50:59.950Z,14.30
2023-03-06T00:53:32.669Z,23.20
2023-03-06T00:56:05.527Z,19.30
2023-03-06T00:58:38.725Z,24.10
2023-03-06T01:01:11.636Z,22.60
2023-03-06T01:03:45.168Z,24.80
2023-03-06T01:06:18.992Z,20.40
2023-03-06T01:08:52.431Z,19.90
2023-03-06T01:11:25.201Z,18.90
2023-03-06T01:13:57.922Z,23.60
2023-03-06T01:16:32.784Z,21.40
2023-03-06T01:19:05.636Z,21.20
2023-03-06T01:21:38.267Z,18.50
2023-03-06T01:24:11.582Z,22.60
2023-03-06T01:26:44.605Z,20.60
2023-03-06T01:29:18.068Z,21.30
2023-03-06T01:31:51.066Z,21.90
2023-03-06T01:34:24.235Z,21.50
2023-03-06T01:36:57.219Z,20.00
2023-03-06T01:39:33.898Z,23.30
2023-03-06T01:42:07.138Z,19.00
2023-03-06T01:44:53.923Z,17.50
2023-03-06T01:47:26.794Z,20.20
2023-03-06T01:49:59.538Z,18.40
2023-03-06T01:52:34.824Z,17.50
2023-03-06T01:55:12.422Z,18.40
2023-03-06T01:57:47.189Z,19.70
2023-03-06T02:00:25.242Z,22.60
2023-03-06T02:02:59.485Z,19.90
2023-03-06T02:05:32.316Z,16.90
2023-03-06T02:08:25.285Z,20.60
2023-03-06T02:11:03.612Z,21.20
2023-03-06T02:13:36.896Z,20.20
2023-03-06T02:16:11.379Z,19.20
2023-03-06T02:18:46.031Z,15.40
2023-03-06T02:21:21.882Z,20.60
2023-03-06T02:24:06.588Z,19.40
2023-03-06T02:26:40.484Z,20.50
2023-03-06T02:29:19.691Z,23.00
2023-03-06T02:31:52.382Z,23.50
2023-03-06T02:35:00.033Z,24.50
2023-03-06T02:37:33.179Z,27.80
2023-03-06T02:40:12.429Z,23.20
2023-03-06T02:42:50.134Z,25.50
2023-03-06T02:45:25.204Z,18.40
2023-03-06T02:47:57.868Z,23.70
2023-03-06T02:50:36.775Z,22.40
2023-03-06T02:53:10.018Z,20.50
2023-03-06T02:55:43.342Z,24.40
2023-03-06T02:58:16.127Z,25.60
2023-03-06T03:00:49.316Z,25.60
2023-03-06T03:03:24.158Z,26.20
2023-03-06T03:05:59.655Z,26.90
2023-03-06T03:08:37.747Z,23.10
2023-03-06T03:11:14.415Z,26.90
2023-03-06T03:13:49.329Z,31.10
2023-03-06T03:16:26.288Z,30.40
2023-03-06T03:19:05.776Z,23.10
2023-03-06T03:21:40.845Z,26.00
2023-03-06T03:24:13.702Z,31.80
2023-03-06T03:26:48.748Z,30.40
2023-03-06T03:29:24.666Z,31.60
2023-03-06T03:31:59.083Z,31.50
2023-03-06T03:34:31.866Z,30.90
2023-03-06T03:37:05.966Z,26.10
2023-03-06T03:39:38.744Z,31.10
2023-03-06T03:42:13.981Z,25.40
2023-03-06T03:44:47.209Z,32.00
2023-03-06T03:47:20.116Z,26.00
2023-03-06T03:49:54.186Z,32.90
2023-03-06T03:52:29.384Z,23.40
2023-03-06T03:55:02.351Z,28.90
2023-03-06T03:57:36.417Z,28.80
2023-03-06T04:00:16.500Z,32.00
2023-03-06T04:02:53.728Z,31.40
2023-03-06T04:05:33.749Z,32.80
2023-03-06T04:08:06.825Z,28.90
2023-03-06T04:10:43.117Z,37.00
2023-03-06T04:13:16.343Z,32.20
2023-03-06T04:15:50.751Z,36.00
2023-03-06T04:18:25.308Z,33.70
2023-03-06T04:21:02.287Z,27.10
2023-03-06T04:23:36.685Z,29.90
2023-03-06T04:26:09.535Z,28.20
2023-03-06T04:28:52.075Z,31.50
2023-03-06T04:31:26.453Z,37.00
2023-03-06T04:33:59.641Z,28.50
2023-03-06T04:36:34.581Z,30.00
2023-03-06T04:39:14.084Z,32.90
2023-03-06T04:41:47.351Z,40.50
2023-03-06T04:44:20.326Z,34.20
2023-03-06T04:46:52.991Z,28.60
2023-03-06T04:49:25.773Z,40.10
2023-03-06T04:51:58.736Z,24.50
2023-03-06T04:54:31.904Z,27.90
2023-03-06T04:57:05.040Z,35.30
2023-03-06T04:59:39.235Z,52.10
2023-03-06T05:02:12.776Z,43.50
2023-03-06T05:04:47.058Z,50.40
2023-03-06T05:07:19.797Z,56.50
2023-03-06T05:09:55.185Z,45.00
2023-03-06T05:12:29.454Z,39.70
2023-03-06T05:15:03.588Z,41.90
2023-03-06T05:17:37.212Z,53.60
2023-03-06T05:20:12.662Z,41.30
2023-03-06T05:22:45.999Z,40.40
2023-03-06T05:25:21.386Z,49.40
2023-03-06T05:27:54.361Z,45.80
2023-03-06T05:30:27.506Z,47.10
2023-03-06T05:33:00.656Z,59.40
2023-03-06T05:35:34.316Z,60.00
2023-03-06T05:38:07.292Z,45.40
2023-03-06T05:40:43.068Z,37.40
2023-03-06T05:43:16.024Z,48.00
2023-03-06T05:45:50.704Z,47.90
2023-03-06T05:48:23.434Z,49.30
2023-03-06T05:50:59.536Z,51.70
2023-03-06T05:53:35.140Z,40.50
2023-03-06T05:56:13.382Z,41.10
2023-03-06T05:58:46.804Z,46.60
2023-03-06T06:01:21.016Z,41.60
2023-03-06T06:03:54.767Z,33.90
2023-03-06T06:06:27.446Z,26.70
2023-03-06T06:09:00.834Z,24.10
2023-03-06T06:11:34.475Z,24.30
2023-03-06T06:14:12.393Z,23.70
2023-03-06T06:16:46.608Z,32.00
2023-03-06T06:19:20.564Z,23.80
2023-03-06T06:21:54.263Z,28.40
2023-03-06T06:24:28.143Z,28.00
2023-03-06T06:27:03.985Z,19.20
2023-03-06T06:29:37.389Z,22.40
2023-03-06T06:32:14.966Z,19.60
2023-03-06T06:34:48.680Z,29.00
2023-03-06T06:37:21.947Z,24.70
2023-03-06T06:39:56.262Z,27.40
2023-03-06T06:42:35.815Z,27.20
2023-03-06T06:45:17.451Z,32.70
2023-03-06T06:47:50.265Z,23.80
2023-03-06T06:50:23.434Z,22.30
2023-03-06T06:52:56.317Z,25.00
2023-03-06T06:55:30.460Z,26.00
2023-03-06T06:58:04.103Z,30.60
2023-03-06T07:00:37.398Z,38.30
2023-03-06T07:03:10.704Z,17.50
2023-03-06T07:05:43.796Z,25.90
2023-03-06T07:08:17.047Z,31.20
2023-03-06T07:10:50.655Z,24.40
2023-03-06T07:13:32.534Z,26.50
2023-03-06T07:16:05.875Z,24.70
2023-03-06T07:18:39.128Z,22.60
2023-03-06T07:21:12.469Z,29.90
2023-03-06T07:23:45.752Z,22.50
2023-03-06T07:26:18.807Z,24.80
2023-03-06T07:28:54.177Z,24.30
2023-03-06T07:31:27.945Z,30.00
2023-03-06T07:34:02.536Z,24.00
2023-03-06T07:36:39.952Z,20.90
2023-03-06T07:39:12.777Z,19.80
2023-03-06T07:41:46.132Z,10.60
2023-03-06T07:44:25.431Z,16.60
2023-03-06T07:46:58.623Z,12.00
2023-03-06T07:49:31.528Z,11.20
2023-03-06T07:52:05.332Z,10.00
2023-03-06T07:54:38.070Z,15.60
2023-03-06T07:57:10.974Z,13.30
2023-03-06T07:59:44.300Z,9.50
2023-03-06T08:02:17.683Z,10.90
2023-03-06T08:04:56.022Z,9.60
2023-03-06T08:07:30.226Z,9.00
2023-03-06T08:10:03.568Z,9.90
2023-03-06T08:12:36.975Z,7.30
2023-03-06T08:15:13.323Z,6.40
2023-03-06T08:17:57.031Z,7.50
2023-03-06T08:20:30.294Z,6.40
2023-03-06T08:23:03.414Z,6.80
2023-03-06T08:25:36.912Z,5.90
2023-03-06T08:28:09.906Z,6.20
2023-03-06T08:30:42.950Z,8.30
2023-03-06T08:33:15.978Z,5.50
2023-03-06T08:35:49.797Z,8.60
2023-03-06T08:38:23.654Z,6.50
2023-03-06T08:40:57.128Z,5.80
2023-03-06T08:43:32.241Z,5.60
2023-03-06T08:46:05.899Z,5.90
2023-03-06T08:48:39.623Z,8.20
2023-03-06T08:51:13.229Z,11.10
2023-03-06T08:53:46.271Z,5.30
2023-03-06T08:56:23.764Z,7.10
2023-03-06T08:58:56.944Z,5.70
2023-03-06T09:01:30.940Z,20.30
2023-03-06T09:04:23.518Z,14.10
2023-03-06T09:06:56.416Z,10.00
2023-03-06T09:09:29.479Z,7.60
2023-03-06T09:12:02.587Z,11.70
2023-03-06T09:14:35.541Z,12.60
2023-03-06T09:17:08.332Z,12.90
2023-03-06T09:19:42.562Z,11.70
2023-03-06T09:22:15.880Z,8.90
2023-03-06T09:24:51.112Z,13.60
2023-03-06T09:27:24.626Z,10.30
2023-03-06T09:29:57.993Z,14.00
2023-03-06T09:32:31.362Z,10.50
2023-03-06T09:35:04.870Z,9.20
2023-03-06T09:37:39.177Z,10.90
2023-03-06T09:40:19.627Z,13.70
2023-03-06T09:42:54.689Z,7.50
2023-03-06T09:45:27.505Z,9.00
2023-03-06T09:48:00.829Z,9.50
2023-03-06T09:50:37.563Z,11.00
2023-03-06T09:53:41.364Z,26.40
2023-03-06T09:56:16.688Z,21.00
2023-03-06T09:58:50.485Z,46.30
2023-03-06T10:01:25.200Z,14.40
2023-03-06T10:03:59.619Z,9.80
2023-03-06T10:06:33.172Z,16.60
2023-03-06T10:09:08.637Z,11.90
2023-03-06T10:11:43.392Z,14.30
2023-03-06T10:14:20.080Z,32.40
2023-03-06T10:16:53.189Z,21.70
2023-03-06T10:19:27.220Z,13.20
2023-03-06T10:22:01.983Z,8.70
2023-03-06T10:24:47.109Z,16.50
2023-03-06T10:27:25.118Z,26.50
2023-03-06T10:30:06.868Z,8.10
2023-03-06T10:32:49.036Z,8.60
2023-03-06T10:37:54.747Z,11.30
2023-03-06T10:40:29.771Z,12.50
2023-03-06T10:43:11.472Z,10.60
2023-03-06T10:48:36.219Z,6.90
2023-03-06T10:51:19.277Z,8.50
2023-03-06T10:53:54.741Z,7.40
2023-03-06T10:56:33.050Z,5.90
2023-03-06T10:59:15.077Z,45.20
2023-03-06T11:01:52.489Z,32.40
2023-03-06T11:04:28.009Z,55.40
2023-03-06T11:07:16.031Z,11.20
2023-03-06T11:10:06.130Z,34.60
2023-03-06T11:12:41.026Z,10.00
2023-03-06T11:15:22.544Z,47.40
2023-03-06T11:17:59.245Z,25.20
2023-03-06T11:20:49.955Z,20.70
2023-03-06T11:23:31.580Z,16.70
2023-03-06T11:26:08.441Z,17.60
2023-03-06T11:28:43.845Z,9.10
2023-03-06T11:31:17.993Z,30.10
2023-03-06T11:33:53.083Z,21.10
2023-03-06T11:36:29.757Z,8.20
2023-03-06T11:39:02.610Z,9.40
2023-03-06T11:41:44.471Z,29.20
2023-03-06T11:44:25.088Z,24.70
2023-03-06T11:47:04.579Z,18.20
2023-03-06T11:49:45.342Z,15.20
2023-03-06T11:52:23.755Z,13.10
2023-03-06T11:54:58.508Z,21.80
2023-03-06T11:57:41.157Z,5.10
2023-03-06T12:00:21.946Z,6.30
2023-03-06T12:03:29.213Z,4.80
2023-03-06T12:06:04.992Z,20.60
2023-03-06T12:08:48.414Z,11.60
2023-03-06T12:11:24.235Z,6.50
2023-03-06T12:14:05.929Z,17.80
2023-03-06T12:16:56.304Z,6.60
2023-03-06T12:19:37.096Z,10.20
2023-03-06T12:22:20.657Z,11.90
2023-03-06T12:25:18.446Z,9.60
2023-03-06T12:27:54.407Z,8.00
2023-03-06T12:30:51.566Z,7.20
2023-03-06T12:33:28.333Z,13.70
2023-03-06T12:36:10.010Z,6.90
2023-03-06T12:39:00.683Z,11.30
2023-03-06T12:41:44.488Z,13.50
2023-03-06T12:44:50.201Z,13.40
2023-03-06T12:47:28.730Z,14.30
2023-03-06T12:50:02.675Z,9.90
2023-03-06T12:55:23.724Z,12.70
2023-03-06T12:58:18.708Z,7.00
2023-03-06T13:01:05.315Z,10.50
2023-03-06T13:03:56.073Z,10.20
2023-03-06T13:06:49.718Z,6.80
2023-03-06T13:09:29.832Z,9.40
2023-03-06T13:12:14.411Z,9.90
2023-03-06T13:14:59.416Z,8.70
2023-03-06T13:17:40.623Z,6.50
2023-03-06T13:20:36.921Z,11.00
2023-03-06T13:23:44.589Z,12.60
2023-03-06T13:27:00.260Z,8.90
2023-03-06T13:30:18.714Z,9.80
2023-03-06T13:32:54.145Z,16.70
2023-03-06T13:35:56.396Z,7.00
2023-03-06T13:38:54.669Z,5.90
2023-03-06T13:41:59.683Z,5.50
2023-03-06T13:44:49.883Z,6.40
2023-03-06T13:48:10.698Z,5.50
2023-03-06T13:50:41.037Z,7.00
2023-03-06T13:53:51.628Z,6.60
2023-03-06T13:56:48.020Z,7.80
2023-03-06T13:59:31.608Z,6.90
2023-03-06T14:02:10.338Z,6.40
2023-03-06T14:04:46.849Z,5.60
2023-03-06T14:07:27.846Z,8.00
2023-03-06T14:10:15.987Z,6.80
2023-03-06T14:13:04.350Z,8.70
2023-03-06T14:15:47.442Z,7.00
2023-03-06T14:18:29.730Z,8.40
2023-03-06T14:21:04.938Z,7.40
2023-03-06T14:23:42.716Z,8.80
2023-03-06T14:26:18.827Z,10.60
2023-03-06T14:28:58.499Z,6.20
2023-03-06T14:31:34.358Z,10.00
2023-03-06T14:34:08.380Z,7.60
2023-03-06T14:36:47.484Z,8.70
2023-03-06T14:39:21.595Z,8.80
2023-03-06T14:41:54.593Z,16.00
2023-03-06T14:44:31.144Z,11.70
2023-03-06T14:47:24.123Z,12.70
2023-03-06T14:50:24.525Z,9.80
2023-03-06T14:52:59.477Z,8.50
2023-03-06T14:55:34.660Z,8.70
2023-03-06T14:58:09.638Z,10.30
2023-03-06T15:00:45.083Z,12.10
2023-03-06T15:03:19.270Z,12.40
2023-03-06T15:05:53.114Z,11.50
2023-03-06T15:08:28.650Z,10.40
2023-03-06T15:11:04.673Z,14.30
2023-03-06T15:13:40.645Z,20.40
2023-03-06T15:16:30.023Z,21.10
2023-03-06T15:19:07.580Z,27.40
2023-03-06T15:21:42.089Z,17.20
2023-03-06T15:24:33.727Z,14.00
2023-03-06T15:27:08.490Z,13.40
2023-03-06T15:29:42.536Z,13.00
2023-03-06T15:32:29.628Z,15.30
2023-03-06T15:35:29.910Z,18.70
2023-03-06T15:38:03.111Z,24.80
2023-03-06T15:40:36.526Z,17.10
2023-03-06T15:43:13.370Z,18.60
2023-03-06T15:45:46.789Z,19.70
2023-03-06T15:48:21.249Z,17.30
2023-03-06T15:50:56.273Z,19.40
2023-03-06T15:53:33.207Z,24.70
2023-03-06T15:56:07.247Z,13.50
2023-03-06T15:58:40.129Z,20.80
2023-03-06T16:01:18.748Z,21.40
2023-03-06T16:04:07.509Z,16.00
2023-03-06T16:06:41.307Z,19.70
2023-03-06T16:09:14.710Z,25.10
2023-03-06T16:11:48.319Z,19.50
2023-03-06T16:14:24.250Z,21.10
2023-03-06T16:16:57.818Z,21.70
2023-03-06T16:19:30.669Z,29.10
2023-03-06T16:22:03.476Z,26.30
2023-03-06T16:24:37.652Z,21.40
2023-03-06T16:27:13.066Z,24.00
2023-03-06T16:29:53.800Z,18.90
2023-03-06T16:32:28.746Z,18.60
2023-03-06T16:35:01.653Z,21.70
2023-03-06T16:37:35.922Z,22.20
2023-03-06T16:40:16.628Z,22.20
2023-03-06T16:42:49.377Z,22.70
2023-03-06T16:45:23.230Z,19.10
2023-03-06T16:48:01.727Z,25.80
2023-03-06T16:50:35.747Z,19.80
2023-03-06T16:53:09.239Z,30.20
2023-03-06T16:55:42.416Z,12.70
2023-03-06T16:58:15.097Z,17.80
2023-03-06T17:00:48.860Z,22.80
2023-03-06T17:03:22.703Z,20.30
2023-03-06T17:05:55.999Z,21.20
2023-03-06T17:08:29.135Z,17.90
2023-03-06T17:11:02.185Z,15.40
2023-03-06T17:13:55.501Z,21.10
2023-03-06T17:16:32.552Z,23.60
2023-03-06T17:19:05.653Z,20.60
2023-03-06T17:21:39.580Z,26.30
2023-03-06T17:24:12.737Z,24.90
2023-03-06T17:26:47.221Z,26.80
2023-03-06T17:29:20.171Z,25.00
2023-03-06T17:31:52.907Z,27.10
2023-03-06T17:34:26.109Z,26.30
2023-03-06T17:36:59.008Z,28.20
2023-03-06T17:39:35.897Z,23.20
2023-03-06T17:42:10.529Z,29.50
2023-03-06T17:44:43.872Z,30.80
2023-03-06T17:47:17.612Z,26.00
2023-03-06T17:49:50.333Z,24.70
2023-03-06T17:52:23.816Z,29.90
2023-03-06T17:54:56.523Z,24.80
2023-03-06T17:57:29.216Z,28.40
2023-03-06T18:00:02.879Z,25.50
2023-03-06T18:02:45.678Z,31.90
2023-03-06T18:05:21.009Z,28.40
2023-03-06T18:07:53.630Z,27.20
2023-03-06T18:10:27.208Z,22.00
2023-03-06T18:13:01.688Z,21.90
2023-03-06T18:15:34.788Z,35.20
2023-03-06T18:18:09.646Z,34.70
2023-03-06T18:20:47.111Z,30.90
2023-03-06T18:23:23.772Z,38.40
2023-03-06T18:26:09.792Z,34.00
2023-03-06T18:28:44.739Z,34.20
2023-03-06T18:31:24.882Z,29.30
2023-03-06T18:36:31.888Z,21.90
2023-03-06T18:39:05.206Z,22.70
2023-03-06T18:41:40.108Z,23.40
2023-03-06T18:44:16.533Z,23.80
2023-03-06T18:46:49.363Z,18.50
2023-03-06T18:49:22.630Z,25.00
2023-03-06T18:51:55.887Z,25.40
2023-03-06T18:54:31.016Z,24.80
2023-03-06T18:57:04.980Z,25.20
2023-03-06T18:59:58.647Z,22.70
2023-03-06T19:02:36.241Z,29.40
2023-03-06T19:05:11.021Z,24.90
2023-03-06T19:07:44.562Z,21.50
2023-03-06T19:10:17.804Z,20.00
2023-03-06T19:12:51.126Z,27.70
2023-03-06T19:15:24.267Z,27.60
2023-03-06T19:17:57.312Z,26.70
2023-03-06T19:20:30.125Z,31.20
2023-03-06T19:23:03.603Z,22.30
2023-03-06T19:25:37.311Z,23.10
2023-03-06T19:28:10.620Z,24.10
2023-03-06T19:30:46.062Z,22.20
2023-03-06T19:33:20.293Z,27.10
2023-03-06T19:35:53.380Z,22.00
2023-03-06T19:38:26.719Z,23.00
2023-03-06T19:41:00.683Z,27.40
2023-03-06T19:43:33.966Z,27.20
2023-03-06T19:46:07.447Z,28.00
2023-03-06T19:48:40.288Z,28.10
2023-03-06T19:51:13.361Z,22.50
2023-03-06T19:53:46.436Z,26.00
2023-03-06T19:56:19.928Z,21.00
2023-03-06T19:58:52.726Z,29.10
2023-03-06T20:01:26.871Z,24.10
2023-03-06T20:04:00.262Z,19.60
2023-03-06T20:06:36.837Z,20.70
2023-03-06T20:09:12.127Z,25.20
2023-03-06T20:11:47.213Z,18.60
2023-03-06T20:14:22.239Z,24.90
2023-03-06T20:16:55.386Z,18.80
2023-03-06T20:19:30.398Z,23.40
2023-03-06T20:22:03.682Z,17.30
2023-03-06T20:24:36.564Z,18.20
2023-03-06T20:27:09.565Z,27.40
2023-03-06T20:29:44.935Z,22.20
2023-03-06T20:32:22.872Z,22.00
2023-03-06T20:34:55.715Z,21.80
2023-03-06T20:37:29.015Z,18.20
2023-03-06T20:40:01.909Z,21.30
2023-03-06T20:42:35.093Z,23.30
2023-03-06T20:45:10.638Z,16.40
2023-03-06T20:47:47.181Z,17.50
2023-03-06T20:50:20.150Z,17.80
2023-03-06T20:52:55.714Z,20.20
2023-03-06T20:55:28.697Z,18.30
2023-03-06T20:58:02.062Z,17.70
2023-03-06T21:00:35.435Z,18.50
2023-03-06T21:03:28.110Z,18.00
2023-03-06T21:06:00.955Z,16.20
2023-03-06T21:08:34.342Z,17.40
2023-03-06T21:11:07.751Z,18.70
2023-03-06T21:13:41.477Z,22.00
2023-03-06T21:16:16.248Z,21.10
2023-03-06T21:18:51.260Z,23.20
2023-03-06T21:21:25.646Z,28.60
2023-03-06T21:23:59.302Z,21.60
2023-03-06T21:26:34.208Z,21.90
2023-03-06T21:29:08.172Z,21.10
2023-03-06T21:31:46.313Z,17.30
2023-03-06T21:34:20.065Z,18.30
2023-03-06T21:36:52.779Z,24.30
2023-03-06T21:39:25.529Z,21.50
2023-03-06T21:41:58.285Z,18.70
2023-03-06T21:44:33.846Z,18.40
2023-03-06T21:47:06.945Z,17.80
2023-03-06T21:49:40.617Z,20.90
2023-03-06T21:52:13.319Z,18.10
2023-03-06T21:54:46.397Z,17.30
2023-03-06T21:57:20.004Z,21.70
2023-03-06T21:59:53.090Z,20.50
2023-03-06T22:02:25.838Z,20.00
2023-03-06T22:04:59.073Z,20.20
2023-03-06T22:07:35.228Z,18.20
2023-03-06T22:10:12.223Z,19.20
2023-03-06T22:12:46.094Z,13.30
2023-03-06T22:15:20.721Z,19.00
2023-03-06T22:17:54.522Z,16.40
2023-03-06T22:20:27.992Z,15.00
2023-03-06T22:23:02.052Z,13.30
2023-03-06T22:25:36.707Z,10.90
2023-03-06T22:28:09.665Z,14.00
2023-03-06T22:30:43.124Z,11.10
2023-03-06T22:33:16.789Z,11.80
2023-03-06T22:35:50.653Z,13.20
2023-03-06T22:38:23.641Z,13.20
2023-03-06T22:40:59.364Z,13.90
2023-03-06T22:43:32.804Z,15.10
2023-03-06T22:46:08.939Z,17.40
2023-03-06T22:48:42.117Z,14.00
2023-03-06T22:51:17.742Z,12.10
2023-03-06T22:53:50.859Z,14.00
2023-03-06T22:56:27.640Z,14.60
2023-03-06T22:59:00.954Z,13.50
2023-03-06T23:01:34.870Z,13.70
2023-03-06T23:04:11.457Z,16.20
2023-03-06T23:06:47.189Z,13.90
2023-03-06T23:09:21.708Z,16.50
2023-03-06T23:12:13.805Z,16.40
2023-03-06T23:15:06.688Z,15.70
2023-03-06T23:18:05.886Z,18.10
2023-03-06T23:20:59.103Z,14.30
2023-03-06T23:23:55.028Z,16.00
2023-03-06T23:26:29.461Z,15.00
2023-03-06T23:29:02.504Z,17.60
2023-03-06T23:31:35.826Z,13.10
2023-03-06T23:34:11.086Z,17.40
2023-03-06T23:36:45.961Z,15.80
2023-03-06T23:39:19.085Z,16.70
2023-03-06T23:41:51.842Z,15.20
2023-03-06T23:44:24.745Z,12.50
2023-03-06T23:46:58.020Z,21.30
2023-03-06T23:49:30.603Z,14.00
2023-03-06T23:52:04.641Z,16.20
2023-03-06T23:54:38.417Z,21.00
2023-03-06T23:57:11.331Z,16.90
2023-03-06T23:59:45.614Z,16.80
